sensor_id;sensor_type;location;lat;lon;timestamp;P1;durP1;ratioP1;P2;durP2;ratioP2
52468;SDS011;38381;53.688;10.776;2022-12-29T00:02:52;5.57;;;3.60;;
52468;SDS011;38381;53.688;10.776;2022-12-29T00:07:52;5.13;;;4.13;;
52468;SDS011;38381;53.688;10.776;2022-12-29T00:12:53;4.10;;;3.70;;
52468;SDS011;38381;53.688;10.776;2022-12-29T00:18:12;4.03;;;3.53;;
52468;SDS011;38381;53.688;10.776;2022-12-29T00:23:12;4.72;;;4.18;;
52468;SDS011;38381;53.688;10.776;2022-12-29T00:28:31;4.90;;;3.80;;
52468;SDS011;38381;53.688;10.776;2022-12-29T00:33:58;5.47;;;4.13;;
52468;SDS011;38381;53.688;10.776;2022-12-29T00:39:17;4.72;;;4.07;;
52468;SDS011;38381;53.688;10.776;2022-12-29T00:44:37;4.20;;;3.30;;
52468;SDS011;38381;53.688;10.776;2022-12-29T00:49:37;4.03;;;3.42;;
52468;SDS011;38381;53.688;10.776;2022-12-29T00:54:38;4.40;;;4.00;;
52468;SDS011;38381;53.688;10.776;2022-12-29T00:59:40;6.13;;;3.90;;
52468;SDS011;38381;53.688;10.776;2022-12-29T01:04:41;4.10;;;3.60;;
52468;SDS011;38381;53.688;10.776;2022-12-29T01:09:42;4.65;;;3.50;;
52468;SDS011;38381;53.688;10.776;2022-12-29T01:15:01;3.63;;;3.00;;
52468;SDS011;38381;53.688;10.776;2022-12-29T01:20:02;3.65;;;3.10;;
52468;SDS011;38381;53.688;10.776;2022-12-29T01:25:03;3.80;;;3.50;;
52468;SDS011;38381;53.688;10.776;2022-12-29T01:30:04;4.50;;;4.10;;
52468;SDS011;38381;53.688;10.776;2022-12-29T01:35:05;4.15;;;3.30;;
52468;SDS011;38381;53.688;10.776;2022-12-29T01:40:06;3.00;;;2.67;;
52468;SDS011;38381;53.688;10.776;2022-12-29T01:45:13;4.57;;;3.88;;
52468;SDS011;38381;53.688;10.776;2022-12-29T01:50:26;3.42;;;3.13;;
52468;SDS011;38381;53.688;10.776;2022-12-29T01:55:31;4.00;;;3.60;;
52468;SDS011;38381;53.688;10.776;2022-12-29T02:00:36;6.35;;;3.67;;
52468;SDS011;38381;53.688;10.776;2022-12-29T02:05:38;3.30;;;3.00;;
52468;SDS011;38381;53.688;10.776;2022-12-29T02:10:44;3.40;;;3.10;;
52468;SDS011;38381;53.688;10.776;2022-12-29T02:15:48;3.45;;;3.15;;
52468;SDS011;38381;53.688;10.776;2022-12-29T02:21:17;4.35;;;3.65;;
52468;SDS011;38381;53.688;10.776;2022-12-29T02:26:34;3.83;;;3.13;;
52468;SDS011;38381;53.688;10.776;2022-12-29T02:47:35;4.07;;;3.67;;
52468;SDS011;38381;53.688;10.776;2022-12-29T02:52:43;4.78;;;4.03;;
52468;SDS011;38381;53.688;10.776;2022-12-29T02:57:49;6.97;;;4.20;;
52468;SDS011;38381;53.688;10.776;2022-12-29T03:03:19;5.20;;;3.63;;
52468;SDS011;38381;53.688;10.776;2022-12-29T03:13:49;4.87;;;3.50;;
52468;SDS011;38381;53.688;10.776;2022-12-29T03:19:15;3.40;;;3.05;;
52468;SDS011;38381;53.688;10.776;2022-12-29T03:24:25;4.50;;;3.20;;
52468;SDS011;38381;53.688;10.776;2022-12-29T03:29:31;4.55;;;2.80;;
52468;SDS011;38381;53.688;10.776;2022-12-29T03:34:35;6.57;;;3.80;;
52468;SDS011;38381;53.688;10.776;2022-12-29T03:39:37;4.45;;;2.90;;
52468;SDS011;38381;53.688;10.776;2022-12-29T03:44:39;3.38;;;2.90;;
52468;SDS011;38381;53.688;10.776;2022-12-29T03:49:42;3.58;;;2.80;;
52468;SDS011;38381;53.688;10.776;2022-12-29T03:54:42;7.37;;;4.00;;
52468;SDS011;38381;53.688;10.776;2022-12-29T03:59:43;3.28;;;2.72;;
52468;SDS011;38381;53.688;10.776;2022-12-29T04:04:43;2.97;;;2.58;;
52468;SDS011;38381;53.688;10.776;2022-12-29T04:09:44;5.68;;;2.75;;
52468;SDS011;38381;53.688;10.776;2022-12-29T04:14:44;3.93;;;3.10;;
52468;SDS011;38381;53.688;10.776;2022-12-29T04:19:45;3.38;;;2.65;;
52468;SDS011;38381;53.688;10.776;2022-12-29T04:24:45;3.80;;;2.25;;
52468;SDS011;38381;53.688;10.776;2022-12-29T04:29:45;3.22;;;2.92;;
52468;SDS011;38381;53.688;10.776;2022-12-29T04:34:46;3.55;;;2.33;;
52468;SDS011;38381;53.688;10.776;2022-12-29T04:39:46;2.53;;;2.23;;
52468;SDS011;38381;53.688;10.776;2022-12-29T04:44:46;2.63;;;2.42;;
52468;SDS011;38381;53.688;10.776;2022-12-29T04:49:47;2.75;;;2.30;;
52468;SDS011;38381;53.688;10.776;2022-12-29T04:54:49;2.40;;;1.80;;
52468;SDS011;38381;53.688;10.776;2022-12-29T04:59:49;4.55;;;2.20;;
52468;SDS011;38381;53.688;10.776;2022-12-29T05:04:49;4.53;;;2.30;;
52468;SDS011;38381;53.688;10.776;2022-12-29T05:09:50;2.95;;;2.65;;
52468;SDS011;38381;53.688;10.776;2022-12-29T05:14:50;3.40;;;2.15;;
52468;SDS011;38381;53.688;10.776;2022-12-29T05:19:51;2.30;;;2.10;;
52468;SDS011;38381;53.688;10.776;2022-12-29T05:24:51;3.08;;;2.30;;
52468;SDS011;38381;53.688;10.776;2022-12-29T05:29:51;2.92;;;1.83;;
52468;SDS011;38381;53.688;10.776;2022-12-29T05:34:52;1.95;;;1.83;;
52468;SDS011;38381;53.688;10.776;2022-12-29T05:39:52;2.65;;;2.38;;
52468;SDS011;38381;53.688;10.776;2022-12-29T05:44:52;3.17;;;2.10;;
52468;SDS011;38381;53.688;10.776;2022-12-29T05:49:53;4.88;;;4.38;;
52468;SDS011;38381;53.688;10.776;2022-12-29T05:54:54;2.85;;;2.05;;
52468;SDS011;38381;53.688;10.776;2022-12-29T05:59:54;2.90;;;2.50;;
52468;SDS011;38381;53.688;10.776;2022-12-29T06:04:55;4.70;;;2.50;;
52468;SDS011;38381;53.688;10.776;2022-12-29T06:09:56;3.28;;;2.47;;
52468;SDS011;38381;53.688;10.776;2022-12-29T06:14:56;3.10;;;2.80;;
52468;SDS011;38381;53.688;10.776;2022-12-29T06:19:57;3.63;;;2.93;;
52468;SDS011;38381;53.688;10.776;2022-12-29T06:24:57;3.17;;;2.88;;
52468;SDS011;38381;53.688;10.776;2022-12-29T06:29:58;2.80;;;2.60;;
52468;SDS011;38381;53.688;10.776;2022-12-29T06:34:58;3.20;;;2.87;;
52468;SDS011;38381;53.688;10.776;2022-12-29T06:39:59;2.83;;;2.58;;
52468;SDS011;38381;53.688;10.776;2022-12-29T06:44:59;3.17;;;2.25;;
52468;SDS011;38381;53.688;10.776;2022-12-29T06:50:00;2.67;;;2.30;;
52468;SDS011;38381;53.688;10.776;2022-12-29T06:55:01;3.65;;;2.13;;
52468;SDS011;38381;53.688;10.776;2022-12-29T07:00:03;2.33;;;1.95;;
52468;SDS011;38381;53.688;10.776;2022-12-29T07:05:04;2.70;;;2.10;;
52468;SDS011;38381;53.688;10.776;2022-12-29T07:10:05;3.25;;;2.10;;
52468;SDS011;38381;53.688;10.776;2022-12-29T07:15:06;2.95;;;2.08;;
52468;SDS011;38381;53.688;10.776;2022-12-29T07:20:07;2.92;;;2.45;;
52468;SDS011;38381;53.688;10.776;2022-12-29T07:25:08;2.17;;;1.77;;
52468;SDS011;38381;53.688;10.776;2022-12-29T07:30:09;2.08;;;1.65;;
52468;SDS011;38381;53.688;10.776;2022-12-29T07:35:10;1.55;;;1.45;;
52468;SDS011;38381;53.688;10.776;2022-12-29T07:40:10;2.35;;;1.63;;
52468;SDS011;38381;53.688;10.776;2022-12-29T07:45:11;2.95;;;2.10;;
52468;SDS011;38381;53.688;10.776;2022-12-29T07:50:12;3.17;;;2.22;;
52468;SDS011;38381;53.688;10.776;2022-12-29T07:55:12;2.80;;;2.40;;
52468;SDS011;38381;53.688;10.776;2022-12-29T08:00:13;3.05;;;2.47;;
52468;SDS011;38381;53.688;10.776;2022-12-29T08:05:14;3.08;;;2.33;;
52468;SDS011;38381;53.688;10.776;2022-12-29T08:10:15;2.15;;;1.95;;
52468;SDS011;38381;53.688;10.776;2022-12-29T08:15:16;3.72;;;2.33;;
52468;SDS011;38381;53.688;10.776;2022-12-29T08:20:16;3.35;;;2.35;;
52468;SDS011;38381;53.688;10.776;2022-12-29T08:25:17;2.78;;;1.98;;
52468;SDS011;38381;53.688;10.776;2022-12-29T08:30:17;2.03;;;1.75;;
52468;SDS011;38381;53.688;10.776;2022-12-29T08:35:18;2.47;;;1.52;;
52468;SDS011;38381;53.688;10.776;2022-12-29T08:40:18;1.55;;;1.40;;
52468;SDS011;38381;53.688;10.776;2022-12-29T08:45:18;1.40;;;1.25;;
52468;SDS011;38381;53.688;10.776;2022-12-29T08:50:19;1.90;;;1.65;;
52468;SDS011;38381;53.688;10.776;2022-12-29T08:55:19;2.80;;;2.20;;
52468;SDS011;38381;53.688;10.776;2022-12-29T09:00:20;1.60;;;1.40;;
52468;SDS011;38381;53.688;10.776;2022-12-29T09:05:20;1.80;;;1.52;;
52468;SDS011;38381;53.688;10.776;2022-12-29T09:10:21;1.45;;;1.35;;
52468;SDS011;38381;53.688;10.776;2022-12-29T09:15:21;1.60;;;1.33;;
52468;SDS011;38381;53.688;10.776;2022-12-29T09:20:21;1.75;;;1.50;;
52468;SDS011;38381;53.688;10.776;2022-12-29T09:25:22;4.30;;;1.63;;
52468;SDS011;38381;53.688;10.776;2022-12-29T09:30:24;2.13;;;1.10;;
52468;SDS011;38381;53.688;10.776;2022-12-29T09:35:24;1.75;;;1.40;;
52468;SDS011;38381;53.688;10.776;2022-12-29T09:40:28;1.53;;;1.27;;
52468;SDS011;38381;53.688;10.776;2022-12-29T09:46:15;1.73;;;1.50;;
52468;SDS011;38381;53.688;10.776;2022-12-29T09:51:02;5.10;;;1.83;;
52468;SDS011;38381;53.688;10.776;2022-12-29T09:56:05;1.70;;;1.45;;
52468;SDS011;38381;53.688;10.776;2022-12-29T10:01:22;1.15;;;1.05;;
52468;SDS011;38381;53.688;10.776;2022-12-29T10:06:33;3.20;;;1.92;;
52468;SDS011;38381;53.688;10.776;2022-12-29T10:27:34;2.25;;;1.52;;
52468;SDS011;38381;53.688;10.776;2022-12-29T10:42:44;2.53;;;1.27;;
52468;SDS011;38381;53.688;10.776;2022-12-29T10:47:53;2.15;;;1.55;;
52468;SDS011;38381;53.688;10.776;2022-12-29T10:53:04;4.13;;;1.67;;
52468;SDS011;38381;53.688;10.776;2022-12-29T10:58:06;2.28;;;1.65;;
52468;SDS011;38381;53.688;10.776;2022-12-29T11:14:29;1.63;;;1.50;;
52468;SDS011;38381;53.688;10.776;2022-12-29T11:19:32;1.30;;;1.20;;
52468;SDS011;38381;53.688;10.776;2022-12-29T11:24:33;2.38;;;1.38;;
52468;SDS011;38381;53.688;10.776;2022-12-29T11:29:44;3.03;;;2.20;;
52468;SDS011;38381;53.688;10.776;2022-12-29T11:34:45;3.97;;;1.70;;
52468;SDS011;38381;53.688;10.776;2022-12-29T11:45:18;4.35;;;1.88;;
52468;SDS011;38381;53.688;10.776;2022-12-29T11:50:25;3.92;;;1.80;;
52468;SDS011;38381;53.688;10.776;2022-12-29T11:55:28;4.38;;;1.67;;
52468;SDS011;38381;53.688;10.776;2022-12-29T12:00:30;2.80;;;1.27;;
52468;SDS011;38381;53.688;10.776;2022-12-29T12:10:46;4.78;;;2.08;;
52468;SDS011;38381;53.688;10.776;2022-12-29T12:15:56;2.65;;;1.73;;
52468;SDS011;38381;53.688;10.776;2022-12-29T12:21:08;3.33;;;1.55;;
52468;SDS011;38381;53.688;10.776;2022-12-29T12:26:18;3.15;;;1.65;;
52468;SDS011;38381;53.688;10.776;2022-12-29T12:42:13;2.13;;;1.70;;
52468;SDS011;38381;53.688;10.776;2022-12-29T12:47:29;4.28;;;1.52;;
52468;SDS011;38381;53.688;10.776;2022-12-29T12:53:00;3.08;;;2.38;;
52468;SDS011;38381;53.688;10.776;2022-12-29T13:36:45;2.53;;;1.75;;
52468;SDS011;38381;53.688;10.776;2022-12-29T13:41:56;4.72;;;1.75;;
52468;SDS011;38381;53.688;10.776;2022-12-29T13:46:58;7.85;;;2.15;;
52468;SDS011;38381;53.688;10.776;2022-12-29T13:52:48;5.03;;;1.50;;
52468;SDS011;38381;53.688;10.776;2022-12-29T13:58:20;7.65;;;2.35;;
52468;SDS011;38381;53.688;10.776;2022-12-29T14:03:31;2.67;;;1.83;;
52468;SDS011;38381;53.688;10.776;2022-12-29T14:08:43;4.60;;;1.63;;
52468;SDS011;38381;53.688;10.776;2022-12-29T14:13:45;3.00;;;1.73;;
52468;SDS011;38381;53.688;10.776;2022-12-29T14:18:47;3.03;;;1.60;;
52468;SDS011;38381;53.688;10.776;2022-12-29T14:23:48;2.15;;;1.30;;
52468;SDS011;38381;53.688;10.776;2022-12-29T14:28:50;4.72;;;1.70;;
52468;SDS011;38381;53.688;10.776;2022-12-29T14:44:32;3.20;;;1.70;;
52468;SDS011;38381;53.688;10.776;2022-12-29T14:49:39;7.30;;;1.80;;
52468;SDS011;38381;53.688;10.776;2022-12-29T14:54:47;5.03;;;2.00;;
52468;SDS011;38381;53.688;10.776;2022-12-29T14:59:52;3.08;;;1.50;;
52468;SDS011;38381;53.688;10.776;2022-12-29T15:04:58;4.80;;;1.70;;
52468;SDS011;38381;53.688;10.776;2022-12-29T15:10:08;1.50;;;1.10;;
52468;SDS011;38381;53.688;10.776;2022-12-29T15:15:22;3.50;;;1.50;;
52468;SDS011;38381;53.688;10.776;2022-12-29T15:20:27;3.67;;;2.05;;
52468;SDS011;38381;53.688;10.776;2022-12-29T15:25:29;2.25;;;1.60;;
52468;SDS011;38381;53.688;10.776;2022-12-29T15:30:32;3.03;;;1.57;;
52468;SDS011;38381;53.688;10.776;2022-12-29T15:35:36;3.05;;;1.55;;
52468;SDS011;38381;53.688;10.776;2022-12-29T15:40:37;3.55;;;1.65;;
52468;SDS011;38381;53.688;10.776;2022-12-29T15:45:38;2.60;;;1.33;;
52468;SDS011;38381;53.688;10.776;2022-12-29T15:50:38;5.22;;;1.77;;
52468;SDS011;38381;53.688;10.776;2022-12-29T15:55:43;3.53;;;2.35;;
52468;SDS011;38381;53.688;10.776;2022-12-29T16:00:48;2.22;;;1.60;;
52468;SDS011;38381;53.688;10.776;2022-12-29T16:05:55;4.32;;;2.20;;
52468;SDS011;38381;53.688;10.776;2022-12-29T16:10:57;3.15;;;1.73;;
52468;SDS011;38381;53.688;10.776;2022-12-29T16:16:02;4.80;;;2.20;;
52468;SDS011;38381;53.688;10.776;2022-12-29T16:21:15;2.50;;;2.15;;
52468;SDS011;38381;53.688;10.776;2022-12-29T16:26:21;3.92;;;2.03;;
52468;SDS011;38381;53.688;10.776;2022-12-29T16:32:18;2.80;;;1.92;;
52468;SDS011;38381;53.688;10.776;2022-12-29T16:42:08;4.05;;;2.55;;
52468;SDS011;38381;53.688;10.776;2022-12-29T16:47:35;2.80;;;1.70;;
52468;SDS011;38381;53.688;10.776;2022-12-29T16:52:36;2.83;;;1.90;;
52468;SDS011;38381;53.688;10.776;2022-12-29T16:57:36;3.72;;;2.50;;
52468;SDS011;38381;53.688;10.776;2022-12-29T17:02:37;8.63;;;1.95;;
52468;SDS011;38381;53.688;10.776;2022-12-29T17:07:44;4.45;;;2.38;;
52468;SDS011;38381;53.688;10.776;2022-12-29T17:12:46;5.55;;;2.25;;
52468;SDS011;38381;53.688;10.776;2022-12-29T17:17:48;4.30;;;2.63;;
52468;SDS011;38381;53.688;10.776;2022-12-29T17:22:51;3.97;;;2.55;;
52468;SDS011;38381;53.688;10.776;2022-12-29T17:28:00;6.57;;;2.53;;
52468;SDS011;38381;53.688;10.776;2022-12-29T17:33:04;4.53;;;2.60;;
52468;SDS011;38381;53.688;10.776;2022-12-29T17:43:36;5.03;;;3.13;;
52468;SDS011;38381;53.688;10.776;2022-12-29T17:48:37;4.75;;;2.53;;
52468;SDS011;38381;53.688;10.776;2022-12-29T17:53:37;4.32;;;3.05;;
52468;SDS011;38381;53.688;10.776;2022-12-29T17:58:38;4.70;;;3.15;;
52468;SDS011;38381;53.688;10.776;2022-12-29T18:03:38;4.70;;;2.92;;
52468;SDS011;38381;53.688;10.776;2022-12-29T18:08:40;4.00;;;2.88;;
52468;SDS011;38381;53.688;10.776;2022-12-29T18:13:41;3.58;;;2.83;;
52468;SDS011;38381;53.688;10.776;2022-12-29T18:18:41;5.60;;;3.43;;
52468;SDS011;38381;53.688;10.776;2022-12-29T18:23:42;5.30;;;2.97;;
52468;SDS011;38381;53.688;10.776;2022-12-29T18:28:43;6.00;;;2.50;;
52468;SDS011;38381;53.688;10.776;2022-12-29T18:33:49;5.63;;;3.65;;
52468;SDS011;38381;53.688;10.776;2022-12-29T18:38:50;8.82;;;4.60;;
52468;SDS011;38381;53.688;10.776;2022-12-29T18:43:53;4.90;;;3.45;;
52468;SDS011;38381;53.688;10.776;2022-12-29T18:48:53;10.68;;;6.10;;
52468;SDS011;38381;53.688;10.776;2022-12-29T18:53:53;4.88;;;3.05;;
52468;SDS011;38381;53.688;10.776;2022-12-29T18:58:54;5.40;;;2.92;;
52468;SDS011;38381;53.688;10.776;2022-12-29T19:03:55;3.80;;;2.65;;
52468;SDS011;38381;53.688;10.776;2022-12-29T19:08:56;5.93;;;3.20;;
52468;SDS011;38381;53.688;10.776;2022-12-29T19:13:56;8.13;;;3.73;;
52468;SDS011;38381;53.688;10.776;2022-12-29T19:19:02;5.00;;;3.35;;
52468;SDS011;38381;53.688;10.776;2022-12-29T19:24:03;5.00;;;3.10;;
52468;SDS011;38381;53.688;10.776;2022-12-29T19:29:06;5.88;;;3.33;;
52468;SDS011;38381;53.688;10.776;2022-12-29T19:34:18;6.00;;;4.18;;
52468;SDS011;38381;53.688;10.776;2022-12-29T19:39:19;10.13;;;5.25;;
52468;SDS011;38381;53.688;10.776;2022-12-29T19:44:20;6.07;;;3.15;;
52468;SDS011;38381;53.688;10.776;2022-12-29T19:49:20;6.03;;;3.13;;
52468;SDS011;38381;53.688;10.776;2022-12-29T19:54:22;9.80;;;3.77;;
52468;SDS011;38381;53.688;10.776;2022-12-29T19:59:23;6.43;;;3.35;;
52468;SDS011;38381;53.688;10.776;2022-12-29T20:04:23;4.75;;;3.33;;
52468;SDS011;38381;53.688;10.776;2022-12-29T20:09:23;7.25;;;4.13;;
52468;SDS011;38381;53.688;10.776;2022-12-29T20:14:24;5.03;;;2.45;;
52468;SDS011;38381;53.688;10.776;2022-12-29T20:19:24;5.43;;;3.17;;
52468;SDS011;38381;53.688;10.776;2022-12-29T20:24:24;9.02;;;5.25;;
52468;SDS011;38381;53.688;10.776;2022-12-29T20:29:25;7.03;;;4.28;;
52468;SDS011;38381;53.688;10.776;2022-12-29T20:34:25;4.72;;;3.30;;
52468;SDS011;38381;53.688;10.776;2022-12-29T20:39:26;6.23;;;4.20;;
52468;SDS011;38381;53.688;10.776;2022-12-29T20:44:27;3.00;;;2.50;;
52468;SDS011;38381;53.688;10.776;2022-12-29T20:54:29;9.63;;;3.63;;
52468;SDS011;38381;53.688;10.776;2022-12-29T20:59:30;8.38;;;3.30;;
52468;SDS011;38381;53.688;10.776;2022-12-29T21:04:30;4.47;;;2.87;;
52468;SDS011;38381;53.688;10.776;2022-12-29T21:09:31;2.38;;;1.90;;
52468;SDS011;38381;53.688;10.776;2022-12-29T21:14:31;4.57;;;2.03;;
52468;SDS011;38381;53.688;10.776;2022-12-29T21:19:31;2.97;;;1.87;;
52468;SDS011;38381;53.688;10.776;2022-12-29T21:24:32;2.23;;;1.97;;
52468;SDS011;38381;53.688;10.776;2022-12-29T21:29:32;1.60;;;1.40;;
52468;SDS011;38381;53.688;10.776;2022-12-29T21:34:33;2.37;;;1.63;;
52468;SDS011;38381;53.688;10.776;2022-12-29T21:39:34;4.20;;;1.90;;
52468;SDS011;38381;53.688;10.776;2022-12-29T21:44:34;4.10;;;1.55;;
52468;SDS011;38381;53.688;10.776;2022-12-29T21:49:53;2.45;;;1.60;;
52468;SDS011;38381;53.688;10.776;2022-12-29T21:54:53;4.68;;;1.90;;
52468;SDS011;38381;53.688;10.776;2022-12-29T22:00:00;3.75;;;1.58;;
52468;SDS011;38381;53.688;10.776;2022-12-29T22:05:20;3.55;;;1.80;;
52468;SDS011;38381;53.688;10.776;2022-12-29T22:10:39;2.20;;;2.00;;
52468;SDS011;38381;53.688;10.776;2022-12-29T22:21:04;3.67;;;2.40;;
52468;SDS011;38381;53.688;10.776;2022-12-29T22:26:07;1.75;;;1.63;;
52468;SDS011;38381;53.688;10.776;2022-12-29T22:31:20;3.20;;;2.25;;
52468;SDS011;38381;53.688;10.776;2022-12-29T22:41:23;3.30;;;1.73;;
52468;SDS011;38381;53.688;10.776;2022-12-29T22:46:23;5.93;;;2.03;;
52468;SDS011;38381;53.688;10.776;2022-12-29T22:51:24;2.75;;;1.70;;
52468;SDS011;38381;53.688;10.776;2022-12-29T22:56:25;3.05;;;2.08;;
52468;SDS011;38381;53.688;10.776;2022-12-29T23:01:25;3.30;;;1.83;;
52468;SDS011;38381;53.688;10.776;2022-12-29T23:06:26;6.40;;;1.80;;
52468;SDS011;38381;53.688;10.776;2022-12-29T23:11:26;2.55;;;2.13;;
52468;SDS011;38381;53.688;10.776;2022-12-29T23:16:27;2.97;;;2.13;;
52468;SDS011;38381;53.688;10.776;2022-12-29T23:21:27;4.53;;;3.10;;
52468;SDS011;38381;53.688;10.776;2022-12-29T23:26:35;6.13;;;2.50;;
52468;SDS011;38381;53.688;10.776;2022-12-29T23:31:38;2.95;;;2.30;;
52468;SDS011;38381;53.688;10.776;2022-12-29T23:36:39;5.38;;;2.30;;
52468;SDS011;38381;53.688;10.776;2022-12-29T23:41:40;3.00;;;2.47;;
52468;SDS011;38381;53.688;10.776;2022-12-29T23:46:40;5.27;;;2.60;;
52468;SDS011;38381;53.688;10.776;2022-12-29T23:51:41;3.13;;;2.20;;
52468;SDS011;38381;53.688;10.776;2022-12-29T23:56:41;3.75;;;2.90;;
